Onde está Zebro do Grou en Portugal?

 

Zebro do Grou está situado na região Santarem em Portugal!

Buscar o nome de uma cidade:

Zebra Pen, Zebra, Zebreh, Zebramangusten, Zèbre

Aqui você vai encontrar a localização de Zebro do Grou em um mapa.
Para ver como ele atualmente parece, abaixo estão algumas fotos da região, com webcams online.
Você também pode encontrar a distância para as principais cidades da região e de cidades do resto do Portugal.

Cidades do mundo
Cidades em Portugal que também são encontradas em outros países do mundo.


Onde está Zebro do Grou no mapa?




Webcams perto Zebro do Grou

Mora › North-West.


Mora › North-West - Dia
Actual
Mora › North-West - Actual

Benavente › North-East: Santarém - AIrport, METAR: BENAV 180005Z 36004KT 17/14 Q1015.


Benavente › North-East: Santarém - AIrport, METAR: BENAV 180005Z 36004KT 17/14 Q1015 - Dia
Actual
Benavente › North-East: Santarém - AIrport, METAR: BENAV 180005Z 36004KT 17/14 Q1015 - Actual

Sao Pedro de Tomar › South-East: Tomar -> SE.


Sao Pedro de Tomar › South-East: Tomar -> SE - Dia
Actual
Sao Pedro de Tomar › South-East: Tomar -> SE - Actual

Webcams provided by webcams.travel


Distâncias

Onde está Zebro do Grou em relação a outros lugares?

Top 10 cidades em Santarem e distância de Zebro do Grou.

Cidade#Populaçãokmmilhas
Santarém1293852415
Entroncamento2198873924
Tomar3191685333
Torres Novas4145264025
Samora Correia5141544226
Abrantes6136464327
Ourém7127296037
Rio Maior8120644830
Fátima9117985836
Almeirim10115561811

Top 10 cidades em Portugal e distância de Zebro do Grou.

Cidade # Populaçãokmmilhas
Lisbon15177987446
Porto2249630227141
Amadora31788567949
Braga4121393270168
Setúbal51171097647
Coimbra610658012175
Queluz71033988050
Funchal8980411048651
Vila Nova de Gaia970810224139
Loures10662306943



Info

Estatística e Geografia

Portugal é composta de 15299 cidades em 20 regiões.

A região de Santarem tem 1174 cidades.

Zebro do Grou é o número 1170 na região Santarem.

A cidade é o número 15277 na Portugal.

Onde está Zebro do Grou en Portugal?